sensor_id;sensor_type;location;lat;lon;timestamp;P1;durP1;ratioP1;P2;durP2;ratioP2
15006;SDS011;7599;50.748;13.142;2024-03-08T00:00:17;8.48;;;6.05;;
15006;SDS011;7599;50.748;13.142;2024-03-08T00:03:21;12.00;;;6.75;;
15006;SDS011;7599;50.748;13.142;2024-03-08T00:06:24;10.45;;;6.45;;
15006;SDS011;7599;50.748;13.142;2024-03-08T00:09:30;10.68;;;6.55;;
15006;SDS011;7599;50.748;13.142;2024-03-08T00:12:34;10.43;;;6.80;;
15006;SDS011;7599;50.748;13.142;2024-03-08T00:15:37;10.23;;;6.68;;
15006;SDS011;7599;50.748;13.142;2024-03-08T00:18:39;10.02;;;6.53;;
15006;SDS011;7599;50.748;13.142;2024-03-08T00:21:43;11.55;;;7.38;;
15006;SDS011;7599;50.748;13.142;2024-03-08T00:24:47;10.90;;;7.32;;
15006;SDS011;7599;50.748;13.142;2024-03-08T00:27:52;11.10;;;6.88;;
15006;SDS011;7599;50.748;13.142;2024-03-08T00:30:59;10.55;;;6.97;;
15006;SDS011;7599;50.748;13.142;2024-03-08T00:34:02;10.77;;;6.85;;
15006;SDS011;7599;50.748;13.142;2024-03-08T00:37:05;11.75;;;6.82;;
15006;SDS011;7599;50.748;13.142;2024-03-08T00:40:10;10.57;;;7.30;;
15006;SDS011;7599;50.748;13.142;2024-03-08T00:43:20;10.00;;;6.63;;
15006;SDS011;7599;50.748;13.142;2024-03-08T00:46:23;10.82;;;7.18;;
15006;SDS011;7599;50.748;13.142;2024-03-08T00:49:26;12.00;;;7.40;;
15006;SDS011;7599;50.748;13.142;2024-03-08T00:52:29;10.77;;;6.93;;
15006;SDS011;7599;50.748;13.142;2024-03-08T00:55:33;10.15;;;7.00;;
15006;SDS011;7599;50.748;13.142;2024-03-08T00:58:36;11.52;;;7.28;;
15006;SDS011;7599;50.748;13.142;2024-03-08T01:01:41;11.50;;;7.18;;
15006;SDS011;7599;50.748;13.142;2024-03-08T01:04:45;10.18;;;7.28;;
15006;SDS011;7599;50.748;13.142;2024-03-08T01:07:54;11.82;;;7.45;;
15006;SDS011;7599;50.748;13.142;2024-03-08T01:11:04;11.52;;;7.45;;
15006;SDS011;7599;50.748;13.142;2024-03-08T01:14:07;12.18;;;7.78;;
15006;SDS011;7599;50.748;13.142;2024-03-08T01:17:11;12.25;;;7.30;;
15006;SDS011;7599;50.748;13.142;2024-03-08T01:20:14;11.55;;;7.32;;
15006;SDS011;7599;50.748;13.142;2024-03-08T01:23:17;11.82;;;7.32;;
15006;SDS011;7599;50.748;13.142;2024-03-08T01:26:21;11.60;;;7.10;;
15006;SDS011;7599;50.748;13.142;2024-03-08T01:29:26;12.35;;;7.28;;
15006;SDS011;7599;50.748;13.142;2024-03-08T01:32:33;12.50;;;7.85;;
15006;SDS011;7599;50.748;13.142;2024-03-08T01:35:36;13.73;;;8.00;;
15006;SDS011;7599;50.748;13.142;2024-03-08T01:38:53;12.77;;;7.93;;
15006;SDS011;7599;50.748;13.142;2024-03-08T01:41:57;13.10;;;8.30;;
15006;SDS011;7599;50.748;13.142;2024-03-08T01:45:00;10.98;;;7.22;;
15006;SDS011;7599;50.748;13.142;2024-03-08T01:48:03;11.10;;;7.88;;
15006;SDS011;7599;50.748;13.142;2024-03-08T01:51:07;11.48;;;7.80;;
15006;SDS011;7599;50.748;13.142;2024-03-08T01:54:11;11.05;;;7.80;;
15006;SDS011;7599;50.748;13.142;2024-03-08T01:57:18;12.05;;;7.85;;
15006;SDS011;7599;50.748;13.142;2024-03-08T02:00:21;12.60;;;7.82;;
15006;SDS011;7599;50.748;13.142;2024-03-08T02:03:27;10.57;;;7.60;;
15006;SDS011;7599;50.748;13.142;2024-03-08T02:06:51;15.90;;;8.45;;
15006;SDS011;7599;50.748;13.142;2024-03-08T02:10:09;10.85;;;7.43;;
15006;SDS011;7599;50.748;13.142;2024-03-08T02:13:16;12.80;;;7.78;;
15006;SDS011;7599;50.748;13.142;2024-03-08T02:16:20;13.57;;;7.82;;
15006;SDS011;7599;50.748;13.142;2024-03-08T02:19:37;12.73;;;7.55;;
15006;SDS011;7599;50.748;13.142;2024-03-08T02:22:44;12.90;;;7.90;;
15006;SDS011;7599;50.748;13.142;2024-03-08T02:25:48;12.88;;;8.02;;
15006;SDS011;7599;50.748;13.142;2024-03-08T02:31:53;14.63;;;8.38;;
15006;SDS011;7599;50.748;13.142;2024-03-08T02:34:57;14.55;;;8.13;;
15006;SDS011;7599;50.748;13.142;2024-03-08T02:38:03;12.50;;;8.00;;
15006;SDS011;7599;50.748;13.142;2024-03-08T02:41:14;12.68;;;8.18;;
15006;SDS011;7599;50.748;13.142;2024-03-08T02:44:17;12.90;;;8.05;;
15006;SDS011;7599;50.748;13.142;2024-03-08T02:47:22;11.95;;;7.45;;
15006;SDS011;7599;50.748;13.142;2024-03-08T02:50:28;11.70;;;7.57;;
15006;SDS011;7599;50.748;13.142;2024-03-08T02:56:37;13.52;;;7.82;;
15006;SDS011;7599;50.748;13.142;2024-03-08T02:59:40;13.98;;;8.48;;
15006;SDS011;7599;50.748;13.142;2024-03-08T03:02:42;11.65;;;7.72;;
15006;SDS011;7599;50.748;13.142;2024-03-08T03:05:53;13.07;;;7.82;;
15006;SDS011;7599;50.748;13.142;2024-03-08T03:09:06;12.48;;;7.80;;
15006;SDS011;7599;50.748;13.142;2024-03-08T03:12:11;13.85;;;8.82;;
15006;SDS011;7599;50.748;13.142;2024-03-08T03:15:19;11.85;;;8.00;;
15006;SDS011;7599;50.748;13.142;2024-03-08T03:18:24;12.90;;;8.38;;
15006;SDS011;7599;50.748;13.142;2024-03-08T03:21:43;12.70;;;8.20;;
15006;SDS011;7599;50.748;13.142;2024-03-08T03:24:47;12.30;;;7.47;;
15006;SDS011;7599;50.748;13.142;2024-03-08T03:27:51;12.70;;;7.70;;
15006;SDS011;7599;50.748;13.142;2024-03-08T03:31:09;13.95;;;8.15;;
15006;SDS011;7599;50.748;13.142;2024-03-08T03:34:26;12.57;;;7.68;;
15006;SDS011;7599;50.748;13.142;2024-03-08T03:37:30;13.40;;;7.90;;
15006;SDS011;7599;50.748;13.142;2024-03-08T03:40:35;14.88;;;8.23;;
15006;SDS011;7599;50.748;13.142;2024-03-08T03:43:38;11.95;;;8.13;;
15006;SDS011;7599;50.748;13.142;2024-03-08T03:46:44;13.50;;;7.85;;
15006;SDS011;7599;50.748;13.142;2024-03-08T03:49:47;12.73;;;7.65;;
15006;SDS011;7599;50.748;13.142;2024-03-08T03:52:49;12.02;;;7.38;;
15006;SDS011;7599;50.748;13.142;2024-03-08T03:59:12;12.30;;;7.70;;
15006;SDS011;7599;50.748;13.142;2024-03-08T04:02:15;12.60;;;8.30;;
15006;SDS011;7599;50.748;13.142;2024-03-08T04:05:28;12.27;;;7.65;;
15006;SDS011;7599;50.748;13.142;2024-03-08T04:08:49;13.30;;;7.82;;
15006;SDS011;7599;50.748;13.142;2024-03-08T04:11:55;13.80;;;8.10;;
15006;SDS011;7599;50.748;13.142;2024-03-08T04:14:58;12.60;;;7.78;;
15006;SDS011;7599;50.748;13.142;2024-03-08T04:18:01;14.52;;;8.48;;
15006;SDS011;7599;50.748;13.142;2024-03-08T04:24:09;13.85;;;7.93;;
15006;SDS011;7599;50.748;13.142;2024-03-08T04:27:20;13.18;;;8.57;;
15006;SDS011;7599;50.748;13.142;2024-03-08T04:30:23;11.75;;;7.93;;
15006;SDS011;7599;50.748;13.142;2024-03-08T04:33:26;12.90;;;7.80;;
15006;SDS011;7599;50.748;13.142;2024-03-08T04:36:30;12.68;;;7.63;;
15006;SDS011;7599;50.748;13.142;2024-03-08T04:39:33;12.63;;;7.93;;
15006;SDS011;7599;50.748;13.142;2024-03-08T04:42:38;15.18;;;8.60;;
15006;SDS011;7599;50.748;13.142;2024-03-08T04:45:43;14.23;;;7.75;;
15006;SDS011;7599;50.748;13.142;2024-03-08T04:49:04;14.07;;;8.25;;
15006;SDS011;7599;50.748;13.142;2024-03-08T04:52:08;12.40;;;7.88;;
15006;SDS011;7599;50.748;13.142;2024-03-08T04:55:11;12.60;;;7.93;;
15006;SDS011;7599;50.748;13.142;2024-03-08T04:58:15;14.50;;;8.50;;
15006;SDS011;7599;50.748;13.142;2024-03-08T05:01:17;13.35;;;8.05;;
15006;SDS011;7599;50.748;13.142;2024-03-08T05:04:28;13.27;;;8.32;;
15006;SDS011;7599;50.748;13.142;2024-03-08T05:10:40;11.52;;;7.18;;
15006;SDS011;7599;50.748;13.142;2024-03-08T05:13:45;13.75;;;7.53;;
15006;SDS011;7599;50.748;13.142;2024-03-08T05:16:47;13.48;;;7.70;;
15006;SDS011;7599;50.748;13.142;2024-03-08T05:19:52;13.90;;;8.20;;
15006;SDS011;7599;50.748;13.142;2024-03-08T05:22:54;12.07;;;7.95;;
15006;SDS011;7599;50.748;13.142;2024-03-08T05:25:59;15.35;;;8.23;;
15006;SDS011;7599;50.748;13.142;2024-03-08T05:29:03;13.32;;;8.35;;
15006;SDS011;7599;50.748;13.142;2024-03-08T05:32:08;12.90;;;8.75;;
15006;SDS011;7599;50.748;13.142;2024-03-08T05:35:11;13.80;;;7.75;;
15006;SDS011;7599;50.748;13.142;2024-03-08T05:38:16;11.60;;;7.70;;
15006;SDS011;7599;50.748;13.142;2024-03-08T05:41:27;13.95;;;8.38;;
15006;SDS011;7599;50.748;13.142;2024-03-08T05:44:31;15.82;;;8.23;;
15006;SDS011;7599;50.748;13.142;2024-03-08T05:47:35;12.77;;;7.68;;
15006;SDS011;7599;50.748;13.142;2024-03-08T05:50:38;14.00;;;8.20;;
15006;SDS011;7599;50.748;13.142;2024-03-08T05:53:41;11.90;;;7.55;;
15006;SDS011;7599;50.748;13.142;2024-03-08T05:56:44;14.55;;;7.93;;
15006;SDS011;7599;50.748;13.142;2024-03-08T05:59:51;14.82;;;8.63;;
15006;SDS011;7599;50.748;13.142;2024-03-08T06:02:56;12.85;;;8.15;;
15006;SDS011;7599;50.748;13.142;2024-03-08T06:06:02;13.23;;;8.07;;
15006;SDS011;7599;50.748;13.142;2024-03-08T06:09:05;12.18;;;7.40;;
15006;SDS011;7599;50.748;13.142;2024-03-08T06:12:13;13.95;;;8.38;;
15006;SDS011;7599;50.748;13.142;2024-03-08T06:15:22;13.80;;;7.90;;
15006;SDS011;7599;50.748;13.142;2024-03-08T06:18:25;13.95;;;8.35;;
15006;SDS011;7599;50.748;13.142;2024-03-08T06:27:36;13.90;;;8.25;;
15006;SDS011;7599;50.748;13.142;2024-03-08T06:30:40;15.50;;;8.63;;
15006;SDS011;7599;50.748;13.142;2024-03-08T06:33:46;13.68;;;8.27;;
15006;SDS011;7599;50.748;13.142;2024-03-08T06:37:00;14.65;;;8.27;;
15006;SDS011;7599;50.748;13.142;2024-03-08T06:40:03;13.32;;;8.40;;
15006;SDS011;7599;50.748;13.142;2024-03-08T06:43:06;14.70;;;8.45;;
15006;SDS011;7599;50.748;13.142;2024-03-08T06:46:12;15.00;;;8.38;;
15006;SDS011;7599;50.748;13.142;2024-03-08T06:49:17;14.32;;;8.43;;
15006;SDS011;7599;50.748;13.142;2024-03-08T06:52:21;13.75;;;8.48;;
15006;SDS011;7599;50.748;13.142;2024-03-08T06:55:24;13.68;;;8.05;;
15006;SDS011;7599;50.748;13.142;2024-03-08T06:58:27;14.50;;;8.50;;
15006;SDS011;7599;50.748;13.142;2024-03-08T07:01:34;14.48;;;8.35;;
15006;SDS011;7599;50.748;13.142;2024-03-08T07:04:38;14.85;;;8.27;;
15006;SDS011;7599;50.748;13.142;2024-03-08T07:07:41;13.68;;;8.52;;
15006;SDS011;7599;50.748;13.142;2024-03-08T07:11:00;16.38;;;9.38;;
15006;SDS011;7599;50.748;13.142;2024-03-08T07:14:03;14.93;;;9.00;;
15006;SDS011;7599;50.748;13.142;2024-03-08T07:17:09;15.10;;;8.75;;
15006;SDS011;7599;50.748;13.142;2024-03-08T07:20:11;14.80;;;8.88;;
15006;SDS011;7599;50.748;13.142;2024-03-08T07:23:15;14.80;;;9.32;;
15006;SDS011;7599;50.748;13.142;2024-03-08T07:26:39;15.85;;;9.60;;
15006;SDS011;7599;50.748;13.142;2024-03-08T07:29:44;14.90;;;8.85;;
15006;SDS011;7599;50.748;13.142;2024-03-08T07:33:02;16.67;;;9.45;;
15006;SDS011;7599;50.748;13.142;2024-03-08T07:36:08;14.23;;;8.57;;
15006;SDS011;7599;50.748;13.142;2024-03-08T07:39:11;13.25;;;8.35;;
15006;SDS011;7599;50.748;13.142;2024-03-08T07:42:15;15.88;;;9.45;;
15006;SDS011;7599;50.748;13.142;2024-03-08T07:45:20;15.27;;;9.25;;
15006;SDS011;7599;50.748;13.142;2024-03-08T07:48:25;16.65;;;8.85;;
15006;SDS011;7599;50.748;13.142;2024-03-08T07:51:28;15.35;;;9.13;;
15006;SDS011;7599;50.748;13.142;2024-03-08T07:54:32;14.48;;;8.68;;
15006;SDS011;7599;50.748;13.142;2024-03-08T08:00:53;18.48;;;10.32;;
15006;SDS011;7599;50.748;13.142;2024-03-08T08:03:58;18.45;;;10.48;;
15006;SDS011;7599;50.748;13.142;2024-03-08T08:07:00;19.98;;;9.95;;
15006;SDS011;7599;50.748;13.142;2024-03-08T08:10:08;19.73;;;10.52;;
15006;SDS011;7599;50.748;13.142;2024-03-08T08:13:18;22.23;;;11.02;;
15006;SDS011;7599;50.748;13.142;2024-03-08T08:16:22;20.00;;;11.45;;
15006;SDS011;7599;50.748;13.142;2024-03-08T08:22:50;24.00;;;12.40;;
15006;SDS011;7599;50.748;13.142;2024-03-08T08:25:53;19.58;;;11.85;;
15006;SDS011;7599;50.748;13.142;2024-03-08T08:28:57;22.15;;;11.88;;
15006;SDS011;7599;50.748;13.142;2024-03-08T08:32:00;19.50;;;11.23;;
15006;SDS011;7599;50.748;13.142;2024-03-08T08:35:15;19.45;;;11.77;;
15006;SDS011;7599;50.748;13.142;2024-03-08T08:38:56;18.77;;;10.48;;
15006;SDS011;7599;50.748;13.142;2024-03-08T08:42:00;21.15;;;10.80;;
15006;SDS011;7599;50.748;13.142;2024-03-08T08:45:05;20.73;;;12.07;;
15006;SDS011;7599;50.748;13.142;2024-03-08T08:48:17;20.98;;;10.98;;
15006;SDS011;7599;50.748;13.142;2024-03-08T08:51:28;16.98;;;10.32;;
15006;SDS011;7599;50.748;13.142;2024-03-08T08:54:31;17.55;;;10.85;;
15006;SDS011;7599;50.748;13.142;2024-03-08T08:57:34;21.83;;;10.82;;
15006;SDS011;7599;50.748;13.142;2024-03-08T09:00:48;19.33;;;11.00;;
15006;SDS011;7599;50.748;13.142;2024-03-08T09:03:51;16.40;;;10.00;;
15006;SDS011;7599;50.748;13.142;2024-03-08T09:06:57;20.77;;;11.30;;
15006;SDS011;7599;50.748;13.142;2024-03-08T09:10:24;17.52;;;10.23;;
15006;SDS011;7599;50.748;13.142;2024-03-08T09:13:29;19.55;;;10.50;;
15006;SDS011;7599;50.748;13.142;2024-03-08T09:16:35;17.13;;;10.02;;
15006;SDS011;7599;50.748;13.142;2024-03-08T09:19:40;20.13;;;10.70;;
15006;SDS011;7599;50.748;13.142;2024-03-08T09:23:02;19.48;;;10.63;;
15006;SDS011;7599;50.748;13.142;2024-03-08T09:26:05;17.30;;;10.10;;
15006;SDS011;7599;50.748;13.142;2024-03-08T09:29:40;18.02;;;10.38;;
15006;SDS011;7599;50.748;13.142;2024-03-08T09:32:43;16.30;;;9.88;;
15006;SDS011;7599;50.748;13.142;2024-03-08T09:35:46;16.35;;;9.82;;
15006;SDS011;7599;50.748;13.142;2024-03-08T09:38:56;15.77;;;9.85;;
15006;SDS011;7599;50.748;13.142;2024-03-08T09:42:02;17.05;;;10.30;;
15006;SDS011;7599;50.748;13.142;2024-03-08T09:45:37;15.95;;;9.75;;
15006;SDS011;7599;50.748;13.142;2024-03-08T09:48:51;16.20;;;9.48;;
15006;SDS011;7599;50.748;13.142;2024-03-08T09:52:03;17.75;;;10.52;;
15006;SDS011;7599;50.748;13.142;2024-03-08T09:55:07;19.92;;;9.98;;
15006;SDS011;7599;50.748;13.142;2024-03-08T09:58:15;17.00;;;9.25;;
15006;SDS011;7599;50.748;13.142;2024-03-08T10:01:33;15.98;;;9.45;;
15006;SDS011;7599;50.748;13.142;2024-03-08T10:04:36;15.07;;;8.80;;
15006;SDS011;7599;50.748;13.142;2024-03-08T10:07:45;15.25;;;9.10;;
15006;SDS011;7599;50.748;13.142;2024-03-08T10:10:47;15.18;;;8.98;;
15006;SDS011;7599;50.748;13.142;2024-03-08T10:14:00;16.20;;;9.85;;
15006;SDS011;7599;50.748;13.142;2024-03-08T10:20:19;15.30;;;9.13;;
15006;SDS011;7599;50.748;13.142;2024-03-08T10:23:23;16.08;;;8.90;;
15006;SDS011;7599;50.748;13.142;2024-03-08T10:26:29;15.00;;;9.20;;
15006;SDS011;7599;50.748;13.142;2024-03-08T10:33:05;14.60;;;9.63;;
15006;SDS011;7599;50.748;13.142;2024-03-08T10:36:11;15.27;;;9.27;;
15006;SDS011;7599;50.748;13.142;2024-03-08T10:39:19;16.13;;;9.13;;
15006;SDS011;7599;50.748;13.142;2024-03-08T10:42:25;15.48;;;9.27;;
15006;SDS011;7599;50.748;13.142;2024-03-08T10:45:34;16.50;;;9.18;;
15006;SDS011;7599;50.748;13.142;2024-03-08T10:48:41;16.65;;;9.48;;
15006;SDS011;7599;50.748;13.142;2024-03-08T10:51:46;14.45;;;8.88;;
15006;SDS011;7599;50.748;13.142;2024-03-08T10:54:53;15.60;;;8.77;;
15006;SDS011;7599;50.748;13.142;2024-03-08T10:58:13;15.57;;;8.80;;
15006;SDS011;7599;50.748;13.142;2024-03-08T11:01:17;14.93;;;7.75;;
15006;SDS011;7599;50.748;13.142;2024-03-08T11:07:28;14.23;;;8.25;;
15006;SDS011;7599;50.748;13.142;2024-03-08T11:10:41;14.77;;;8.25;;
15006;SDS011;7599;50.748;13.142;2024-03-08T11:13:51;15.75;;;9.18;;
15006;SDS011;7599;50.748;13.142;2024-03-08T11:17:09;12.60;;;8.02;;
15006;SDS011;7599;50.748;13.142;2024-03-08T11:20:14;12.43;;;7.78;;
15006;SDS011;7599;50.748;13.142;2024-03-08T11:23:23;15.07;;;8.40;;
15006;SDS011;7599;50.748;13.142;2024-03-08T11:26:29;14.30;;;8.30;;
15006;SDS011;7599;50.748;13.142;2024-03-08T11:29:33;11.98;;;7.47;;
15006;SDS011;7599;50.748;13.142;2024-03-08T11:32:44;15.60;;;8.23;;
15006;SDS011;7599;50.748;13.142;2024-03-08T11:39:00;13.18;;;7.53;;
15006;SDS011;7599;50.748;13.142;2024-03-08T11:42:10;14.05;;;8.18;;
15006;SDS011;7599;50.748;13.142;2024-03-08T11:45:13;13.63;;;7.63;;
15006;SDS011;7599;50.748;13.142;2024-03-08T11:51:20;12.50;;;7.57;;
15006;SDS011;7599;50.748;13.142;2024-03-08T11:54:23;13.35;;;7.97;;
15006;SDS011;7599;50.748;13.142;2024-03-08T12:00:30;13.93;;;7.88;;
15006;SDS011;7599;50.748;13.142;2024-03-08T12:03:36;13.77;;;8.18;;
15006;SDS011;7599;50.748;13.142;2024-03-08T12:06:47;13.52;;;7.88;;
15006;SDS011;7599;50.748;13.142;2024-03-08T12:13:46;13.23;;;7.88;;
15006;SDS011;7599;50.748;13.142;2024-03-08T12:17:04;13.52;;;7.55;;
15006;SDS011;7599;50.748;13.142;2024-03-08T12:20:11;12.82;;;7.07;;
15006;SDS011;7599;50.748;13.142;2024-03-08T12:26:35;12.60;;;7.88;;
15006;SDS011;7599;50.748;13.142;2024-03-08T12:29:38;12.05;;;7.25;;
15006;SDS011;7599;50.748;13.142;2024-03-08T12:32:46;12.68;;;7.55;;
15006;SDS011;7599;50.748;13.142;2024-03-08T12:35:52;12.40;;;7.28;;
15006;SDS011;7599;50.748;13.142;2024-03-08T12:38:58;14.95;;;8.40;;
15006;SDS011;7599;50.748;13.142;2024-03-08T12:42:02;12.07;;;7.35;;
15006;SDS011;7599;50.748;13.142;2024-03-08T12:45:08;12.80;;;7.53;;
15006;SDS011;7599;50.748;13.142;2024-03-08T12:48:12;12.27;;;7.50;;
15006;SDS011;7599;50.748;13.142;2024-03-08T12:51:26;14.35;;;8.50;;
15006;SDS011;7599;50.748;13.142;2024-03-08T12:54:34;12.30;;;6.97;;
15006;SDS011;7599;50.748;13.142;2024-03-08T12:57:37;12.80;;;7.43;;
15006;SDS011;7599;50.748;13.142;2024-03-08T13:00:39;12.32;;;7.68;;
15006;SDS011;7599;50.748;13.142;2024-03-08T13:03:44;12.65;;;7.63;;
15006;SDS011;7599;50.748;13.142;2024-03-08T13:06:50;13.25;;;7.90;;
15006;SDS011;7599;50.748;13.142;2024-03-08T13:09:59;11.38;;;6.95;;
15006;SDS011;7599;50.748;13.142;2024-03-08T13:13:02;11.48;;;7.00;;
15006;SDS011;7599;50.748;13.142;2024-03-08T13:16:24;12.68;;;7.05;;
15006;SDS011;7599;50.748;13.142;2024-03-08T13:19:34;10.30;;;6.95;;
15006;SDS011;7599;50.748;13.142;2024-03-08T13:22:39;14.77;;;7.68;;
15006;SDS011;7599;50.748;13.142;2024-03-08T13:25:44;11.48;;;6.90;;
15006;SDS011;7599;50.748;13.142;2024-03-08T13:28:49;12.27;;;6.80;;
15006;SDS011;7599;50.748;13.142;2024-03-08T13:31:55;10.88;;;6.80;;
15006;SDS011;7599;50.748;13.142;2024-03-08T13:35:04;12.25;;;7.53;;
15006;SDS011;7599;50.748;13.142;2024-03-08T13:38:13;13.30;;;7.05;;
15006;SDS011;7599;50.748;13.142;2024-03-08T13:41:17;12.57;;;7.05;;
15006;SDS011;7599;50.748;13.142;2024-03-08T13:44:24;11.77;;;6.72;;
15006;SDS011;7599;50.748;13.142;2024-03-08T13:47:29;10.48;;;6.88;;
15006;SDS011;7599;50.748;13.142;2024-03-08T13:50:35;10.35;;;6.65;;
15006;SDS011;7599;50.748;13.142;2024-03-08T13:53:38;11.80;;;6.88;;
15006;SDS011;7599;50.748;13.142;2024-03-08T13:56:43;11.85;;;6.97;;
15006;SDS011;7599;50.748;13.142;2024-03-08T13:59:47;11.77;;;7.13;;
15006;SDS011;7599;50.748;13.142;2024-03-08T14:03:07;10.57;;;6.82;;
15006;SDS011;7599;50.748;13.142;2024-03-08T14:06:11;11.50;;;6.95;;
15006;SDS011;7599;50.748;13.142;2024-03-08T14:09:31;11.02;;;6.65;;
15006;SDS011;7599;50.748;13.142;2024-03-08T14:12:39;11.75;;;7.45;;
15006;SDS011;7599;50.748;13.142;2024-03-08T14:15:44;11.27;;;7.72;;
15006;SDS011;7599;50.748;13.142;2024-03-08T14:18:47;12.15;;;7.38;;
15006;SDS011;7599;50.748;13.142;2024-03-08T14:21:50;12.10;;;7.45;;
15006;SDS011;7599;50.748;13.142;2024-03-08T14:25:11;11.68;;;7.63;;
15006;SDS011;7599;50.748;13.142;2024-03-08T14:28:21;13.15;;;8.07;;
15006;SDS011;7599;50.748;13.142;2024-03-08T14:31:24;10.88;;;7.35;;
15006;SDS011;7599;50.748;13.142;2024-03-08T14:34:27;11.95;;;7.18;;
15006;SDS011;7599;50.748;13.142;2024-03-08T14:37:31;12.25;;;7.07;;
15006;SDS011;7599;50.748;13.142;2024-03-08T14:40:44;10.90;;;7.15;;
15006;SDS011;7599;50.748;13.142;2024-03-08T14:43:50;10.23;;;6.78;;
15006;SDS011;7599;50.748;13.142;2024-03-08T14:46:54;12.90;;;7.35;;
15006;SDS011;7599;50.748;13.142;2024-03-08T14:50:00;11.52;;;6.88;;
15006;SDS011;7599;50.748;13.142;2024-03-08T14:53:03;11.15;;;7.07;;
15006;SDS011;7599;50.748;13.142;2024-03-08T14:56:08;11.80;;;7.25;;
15006;SDS011;7599;50.748;13.142;2024-03-08T14:59:14;10.75;;;7.10;;
15006;SDS011;7599;50.748;13.142;2024-03-08T15:02:17;10.55;;;6.95;;
15006;SDS011;7599;50.748;13.142;2024-03-08T15:05:24;12.35;;;7.43;;
15006;SDS011;7599;50.748;13.142;2024-03-08T15:08:28;13.43;;;8.00;;
15006;SDS011;7599;50.748;13.142;2024-03-08T15:11:31;10.38;;;6.45;;
15006;SDS011;7599;50.748;13.142;2024-03-08T15:14:37;12.00;;;7.32;;
15006;SDS011;7599;50.748;13.142;2024-03-08T15:17:47;11.57;;;6.93;;
15006;SDS011;7599;50.748;13.142;2024-03-08T15:20:51;11.05;;;6.85;;
15006;SDS011;7599;50.748;13.142;2024-03-08T15:23:54;10.63;;;6.90;;
15006;SDS011;7599;50.748;13.142;2024-03-08T15:26:57;12.70;;;7.10;;
15006;SDS011;7599;50.748;13.142;2024-03-08T15:30:08;10.85;;;6.43;;
15006;SDS011;7599;50.748;13.142;2024-03-08T15:33:14;11.27;;;7.50;;
15006;SDS011;7599;50.748;13.142;2024-03-08T15:36:39;10.52;;;6.70;;
15006;SDS011;7599;50.748;13.142;2024-03-08T15:40:03;9.48;;;6.32;;
15006;SDS011;7599;50.748;13.142;2024-03-08T15:43:07;10.68;;;6.43;;
15006;SDS011;7599;50.748;13.142;2024-03-08T15:46:12;10.93;;;6.90;;
15006;SDS011;7599;50.748;13.142;2024-03-08T15:52:47;14.65;;;7.32;;
15006;SDS011;7599;50.748;13.142;2024-03-08T15:55:57;11.35;;;6.70;;
15006;SDS011;7599;50.748;13.142;2024-03-08T15:59:00;10.27;;;7.15;;
15006;SDS011;7599;50.748;13.142;2024-03-08T16:02:13;12.15;;;7.47;;
15006;SDS011;7599;50.748;13.142;2024-03-08T16:05:30;10.35;;;6.95;;
15006;SDS011;7599;50.748;13.142;2024-03-08T16:08:32;11.20;;;7.00;;
15006;SDS011;7599;50.748;13.142;2024-03-08T16:11:38;10.52;;;6.90;;
15006;SDS011;7599;50.748;13.142;2024-03-08T16:14:41;12.65;;;7.38;;
15006;SDS011;7599;50.748;13.142;2024-03-08T16:17:50;12.10;;;6.50;;
15006;SDS011;7599;50.748;13.142;2024-03-08T16:21:05;10.75;;;7.15;;
15006;SDS011;7599;50.748;13.142;2024-03-08T16:24:13;12.38;;;6.85;;
15006;SDS011;7599;50.748;13.142;2024-03-08T16:27:33;10.98;;;6.90;;
15006;SDS011;7599;50.748;13.142;2024-03-08T16:30:35;10.75;;;6.78;;
15006;SDS011;7599;50.748;13.142;2024-03-08T16:33:57;9.82;;;6.60;;
15006;SDS011;7599;50.748;13.142;2024-03-08T16:37:10;12.70;;;6.75;;
15006;SDS011;7599;50.748;13.142;2024-03-08T16:40:13;9.57;;;6.15;;
15006;SDS011;7599;50.748;13.142;2024-03-08T16:43:23;10.60;;;6.57;;
15006;SDS011;7599;50.748;13.142;2024-03-08T16:46:39;10.55;;;6.80;;
15006;SDS011;7599;50.748;13.142;2024-03-08T16:49:43;9.25;;;5.68;;
15006;SDS011;7599;50.748;13.142;2024-03-08T16:52:52;9.05;;;6.00;;
15006;SDS011;7599;50.748;13.142;2024-03-08T16:56:00;9.98;;;6.25;;
15006;SDS011;7599;50.748;13.142;2024-03-08T16:59:05;10.48;;;6.32;;
15006;SDS011;7599;50.748;13.142;2024-03-08T17:02:09;8.68;;;6.43;;
15006;SDS011;7599;50.748;13.142;2024-03-08T17:05:17;9.48;;;6.30;;
15006;SDS011;7599;50.748;13.142;2024-03-08T17:08:20;10.07;;;6.85;;
15006;SDS011;7599;50.748;13.142;2024-03-08T17:17:47;9.80;;;6.20;;
15006;SDS011;7599;50.748;13.142;2024-03-08T17:20:52;10.50;;;6.65;;
15006;SDS011;7599;50.748;13.142;2024-03-08T17:23:55;11.25;;;6.32;;
15006;SDS011;7599;50.748;13.142;2024-03-08T17:26:57;9.63;;;6.18;;
15006;SDS011;7599;50.748;13.142;2024-03-08T17:30:03;9.98;;;6.32;;
15006;SDS011;7599;50.748;13.142;2024-03-08T17:33:24;9.55;;;5.82;;
15006;SDS011;7599;50.748;13.142;2024-03-08T17:36:42;9.32;;;5.80;;
15006;SDS011;7599;50.748;13.142;2024-03-08T17:39:44;9.80;;;5.90;;
15006;SDS011;7599;50.748;13.142;2024-03-08T17:42:48;9.60;;;6.18;;
15006;SDS011;7599;50.748;13.142;2024-03-08T17:45:51;8.52;;;6.18;;
15006;SDS011;7599;50.748;13.142;2024-03-08T17:49:06;10.43;;;6.25;;
15006;SDS011;7599;50.748;13.142;2024-03-08T17:52:14;10.48;;;6.22;;
15006;SDS011;7599;50.748;13.142;2024-03-08T17:58:24;8.77;;;5.60;;
15006;SDS011;7599;50.748;13.142;2024-03-08T18:01:29;9.77;;;6.20;;
15006;SDS011;7599;50.748;13.142;2024-03-08T18:04:34;8.98;;;5.97;;
15006;SDS011;7599;50.748;13.142;2024-03-08T18:07:40;9.13;;;6.00;;
15006;SDS011;7599;50.748;13.142;2024-03-08T18:10:43;8.70;;;5.95;;
15006;SDS011;7599;50.748;13.142;2024-03-08T18:14:23;9.38;;;5.78;;
15006;SDS011;7599;50.748;13.142;2024-03-08T18:17:27;10.55;;;5.78;;
15006;SDS011;7599;50.748;13.142;2024-03-08T18:20:45;8.35;;;5.22;;
15006;SDS011;7599;50.748;13.142;2024-03-08T18:23:51;9.32;;;5.70;;
15006;SDS011;7599;50.748;13.142;2024-03-08T18:26:54;8.00;;;5.55;;
15006;SDS011;7599;50.748;13.142;2024-03-08T18:29:57;10.63;;;6.57;;
15006;SDS011;7599;50.748;13.142;2024-03-08T18:33:00;8.23;;;5.50;;
15006;SDS011;7599;50.748;13.142;2024-03-08T18:45:55;9.07;;;5.45;;
15006;SDS011;7599;50.748;13.142;2024-03-08T18:49:11;9.60;;;5.65;;
15006;SDS011;7599;50.748;13.142;2024-03-08T18:52:15;8.85;;;5.82;;
15006;SDS011;7599;50.748;13.142;2024-03-08T18:55:21;10.18;;;5.57;;
15006;SDS011;7599;50.748;13.142;2024-03-08T18:58:25;8.15;;;5.45;;
15006;SDS011;7599;50.748;13.142;2024-03-08T19:01:45;8.55;;;5.80;;
15006;SDS011;7599;50.748;13.142;2024-03-08T19:04:49;10.48;;;5.72;;
15006;SDS011;7599;50.748;13.142;2024-03-08T19:10:57;10.27;;;5.47;;
15006;SDS011;7599;50.748;13.142;2024-03-08T19:14:00;7.78;;;5.43;;
15006;SDS011;7599;50.748;13.142;2024-03-08T19:17:31;8.27;;;5.75;;
15006;SDS011;7599;50.748;13.142;2024-03-08T19:20:34;7.78;;;5.75;;
15006;SDS011;7599;50.748;13.142;2024-03-08T19:23:48;9.32;;;6.05;;
15006;SDS011;7599;50.748;13.142;2024-03-08T19:26:50;8.40;;;5.72;;
15006;SDS011;7599;50.748;13.142;2024-03-08T19:29:53;8.73;;;5.43;;
15006;SDS011;7599;50.748;13.142;2024-03-08T19:32:57;9.27;;;6.15;;
15006;SDS011;7599;50.748;13.142;2024-03-08T19:36:01;9.20;;;5.78;;
15006;SDS011;7599;50.748;13.142;2024-03-08T19:39:11;8.07;;;5.60;;
15006;SDS011;7599;50.748;13.142;2024-03-08T19:42:13;7.50;;;5.32;;
15006;SDS011;7599;50.748;13.142;2024-03-08T19:45:16;8.77;;;5.70;;
15006;SDS011;7599;50.748;13.142;2024-03-08T19:48:30;7.72;;;5.32;;
15006;SDS011;7599;50.748;13.142;2024-03-08T19:51:33;8.77;;;5.57;;